createdAt,value
2022-08-17T00:00:52.107Z,19.9
2022-08-17T00:01:52.171Z,19.9
2022-08-17T00:02:52.209Z,19.8
2022-08-17T00:03:53.619Z,19.9
2022-08-17T00:04:54.219Z,19.8
2022-08-17T00:05:54.815Z,19.8
2022-08-17T00:06:55.409Z,19.9
2022-08-17T00:07:56.005Z,19.8
2022-08-17T00:08:56.604Z,19.7
2022-08-17T00:09:57.200Z,19.8
2022-08-17T00:10:57.797Z,20.0
2022-08-17T00:12:40.422Z,20.2
2022-08-17T00:12:59.980Z,20.4
2022-08-17T00:14:00.576Z,20.4
2022-08-17T00:15:01.171Z,20.5
2022-08-17T00:16:01.768Z,20.4
2022-08-17T00:17:02.366Z,20.4
2022-08-17T00:18:02.970Z,20.5
2022-08-17T00:19:08.326Z,20.5
2022-08-17T00:20:05.146Z,20.5
2022-08-17T00:21:10.574Z,20.4
2022-08-17T00:22:33.716Z,20.4
2022-08-17T00:23:08.922Z,20.3
2022-08-17T00:24:09.519Z,20.3
2022-08-17T00:25:10.115Z,20.3
2022-08-17T00:26:10.711Z,20.3
2022-08-17T00:27:11.326Z,20.4
2022-08-17T00:28:11.923Z,20.5
2022-08-17T00:29:14.915Z,20.6
2022-08-17T00:30:14.108Z,20.5
2022-08-17T00:31:14.705Z,20.5
2022-08-17T00:33:17.096Z,20.3
2022-08-17T00:33:22.700Z,20.3
2022-08-17T00:34:17.674Z,20.4
2022-08-17T00:35:18.275Z,20.2
2022-08-17T00:36:18.869Z,20.3
2022-08-17T00:37:19.489Z,20.3
2022-08-17T00:38:20.079Z,20.3
2022-08-17T00:39:20.675Z,20.3
2022-08-17T00:40:21.272Z,20.3
2022-08-17T00:41:22.862Z,20.3
2022-08-17T00:42:27.546Z,20.3
2022-08-17T00:43:25.051Z,20.3
2022-08-17T00:44:31.223Z,20.3
2022-08-17T00:45:27.238Z,20.3
2022-08-17T00:46:27.834Z,20.2
2022-08-17T00:47:28.432Z,20.3
2022-08-17T00:48:30.650Z,20.3
2022-08-17T00:49:30.620Z,20.2
2022-08-17T00:50:31.236Z,20.3
2022-08-17T00:51:31.834Z,20.4
2022-08-17T00:52:32.430Z,20.3
2022-08-17T00:53:33.034Z,20.2
2022-08-17T00:54:33.621Z,20.3
2022-08-17T00:55:35.213Z,20.2
2022-08-17T00:56:35.808Z,20.1
2022-08-17T00:57:36.406Z,20.0
2022-08-17T00:58:37.001Z,19.8
2022-08-17T00:59:37.599Z,19.6
2022-08-17T01:00:38.195Z,19.6
2022-08-17T01:01:38.840Z,19.6
2022-08-17T01:02:42.275Z,19.8
2022-08-17T01:03:40.979Z,19.9
2022-08-17T01:04:41.574Z,20.0
2022-08-17T01:05:42.660Z,20.1
2022-08-17T01:06:43.227Z,19.9
2022-08-17T01:07:43.824Z,19.6
2022-08-17T01:08:44.421Z,19.4
2022-08-17T01:09:45.017Z,19.2
2022-08-17T01:10:59.457Z,19.2
2022-08-17T01:11:47.206Z,19.1
2022-08-17T01:12:47.797Z,19.1
2022-08-17T01:13:48.394Z,19.0
2022-08-17T01:14:48.989Z,19.0
2022-08-17T01:15:49.587Z,18.9
2022-08-17T01:16:50.182Z,18.9
2022-08-17T01:17:50.778Z,18.9
2022-08-17T01:18:51.374Z,18.9
2022-08-17T01:19:51.974Z,19.0
2022-08-17T01:20:52.570Z,18.9
2022-08-17T01:21:53.163Z,18.9
2022-08-17T01:22:53.757Z,19.0
2022-08-17T01:23:54.354Z,18.9
2022-08-17T01:24:54.952Z,18.8
2022-08-17T01:25:55.546Z,18.8
2022-08-17T01:26:56.657Z,18.9
2022-08-17T01:27:57.733Z,18.9
2022-08-17T01:28:58.358Z,18.9
2022-08-17T01:29:58.942Z,19.0
2022-08-17T01:30:59.599Z,18.9
2022-08-17T01:32:00.162Z,19.0
2022-08-17T01:33:00.758Z,18.9
2022-08-17T01:34:01.869Z,18.9
2022-08-17T01:35:02.514Z,19.1
2022-08-17T01:36:03.109Z,19.0
2022-08-17T01:37:03.710Z,19.0
2022-08-17T01:38:04.323Z,18.9
2022-08-17T01:39:04.923Z,18.9
2022-08-17T01:40:05.600Z,18.9
2022-08-17T01:41:06.162Z,18.9
2022-08-17T01:42:06.756Z,18.9
2022-08-17T01:43:07.363Z,18.9
2022-08-17T01:44:07.949Z,19.0
2022-08-17T01:45:08.546Z,18.9
2022-08-17T01:46:09.141Z,18.9
2022-08-17T01:47:09.740Z,18.8
2022-08-17T01:48:10.336Z,18.8
2022-08-17T01:49:10.929Z,18.8
2022-08-17T01:50:11.526Z,18.9
2022-08-17T01:51:12.123Z,18.8
2022-08-17T01:52:12.727Z,18.8
2022-08-17T01:53:13.316Z,18.9
2022-08-17T01:54:13.913Z,19.0
2022-08-17T01:55:14.512Z,19.0
2022-08-17T01:56:15.108Z,19.2
2022-08-17T01:57:15.705Z,19.2
2022-08-17T01:58:16.301Z,19.3
2022-08-17T01:59:16.900Z,19.2
2022-08-17T02:00:17.496Z,19.3
2022-08-17T02:01:18.140Z,19.4
2022-08-17T02:02:30.920Z,19.4
2022-08-17T02:03:20.305Z,19.4
2022-08-17T02:04:20.897Z,19.3
2022-08-17T02:05:21.494Z,19.3
2022-08-17T02:06:27.191Z,19.1
2022-08-17T02:07:26.053Z,19.0
2022-08-17T02:08:38.953Z,18.9
2022-08-17T02:09:28.872Z,18.9
2022-08-17T02:10:33.731Z,18.8
2022-08-17T02:11:30.036Z,18.8
2022-08-17T02:12:39.430Z,18.8
2022-08-17T02:13:32.507Z,18.7
2022-08-17T02:14:33.116Z,18.7
2022-08-17T02:15:33.716Z,18.8
2022-08-17T02:16:37.631Z,18.8
2022-08-17T02:17:35.899Z,18.9
2022-08-17T02:18:36.493Z,18.8
2022-08-17T02:19:37.090Z,18.8
2022-08-17T02:20:42.670Z,18.8
2022-08-17T02:21:39.278Z,18.8
2022-08-17T02:22:39.870Z,18.8
2022-08-17T02:23:40.470Z,18.7
2022-08-17T02:25:00.159Z,18.9
2022-08-17T02:25:42.655Z,18.8
2022-08-17T02:26:43.251Z,18.9
2022-08-17T02:27:43.866Z,18.8
2022-08-17T02:28:44.456Z,18.9
2022-08-17T02:29:45.056Z,18.9
2022-08-17T02:31:02.253Z,18.9
2022-08-17T02:31:47.240Z,18.9
2022-08-17T02:32:47.835Z,18.9
2022-08-17T02:33:56.579Z,18.9
2022-08-17T02:34:50.018Z,18.9
2022-08-17T02:35:50.615Z,18.9
2022-08-17T02:36:51.210Z,19.0
2022-08-17T02:37:51.946Z,19.0
2022-08-17T02:38:53.397Z,19.0
2022-08-17T02:39:54.052Z,19.0
2022-08-17T02:40:54.632Z,19.1
2022-08-17T02:41:55.230Z,19.1
2022-08-17T02:42:55.825Z,19.1
2022-08-17T02:43:56.423Z,19.2
2022-08-17T02:44:57.019Z,19.2
2022-08-17T02:45:57.617Z,19.0
2022-08-17T02:46:58.212Z,18.9
2022-08-17T02:47:58.809Z,18.8
2022-08-17T02:48:59.405Z,18.8
2022-08-17T02:50:00.001Z,18.8
2022-08-17T02:51:00.606Z,18.7
2022-08-17T02:52:01.196Z,18.8
2022-08-17T02:53:04.568Z,18.8
2022-08-17T02:54:40.053Z,18.8
2022-08-17T02:55:04.971Z,18.7
2022-08-17T02:56:05.568Z,18.7
2022-08-17T02:57:06.161Z,18.7
2022-08-17T02:58:06.760Z,18.8
2022-08-17T02:59:07.354Z,18.7
2022-08-17T03:00:07.953Z,18.6
2022-08-17T03:01:08.547Z,18.7
2022-08-17T03:02:09.192Z,18.7
2022-08-17T03:03:09.744Z,18.6
2022-08-17T03:04:10.342Z,18.6
2022-08-17T03:05:10.943Z,18.6
2022-08-17T03:06:11.535Z,18.6
2022-08-17T03:07:12.130Z,18.5
2022-08-17T03:08:13.191Z,18.5
2022-08-17T03:09:13.992Z,18.4
2022-08-17T03:10:14.590Z,18.4
2022-08-17T03:11:15.187Z,18.4
2022-08-17T03:12:15.784Z,18.4
2022-08-17T03:13:16.380Z,18.4
2022-08-17T03:14:16.977Z,18.5
2022-08-17T03:15:18.569Z,18.4
2022-08-17T03:16:19.163Z,18.6
2022-08-17T03:17:19.759Z,18.6
2022-08-17T03:18:25.786Z,18.6
2022-08-17T03:19:21.946Z,18.5
2022-08-17T03:20:22.563Z,18.5
2022-08-17T03:21:23.159Z,18.5
2022-08-17T03:22:37.376Z,18.4
2022-08-17T03:23:25.704Z,18.2
2022-08-17T03:24:28.799Z,18.3
2022-08-17T03:25:27.547Z,18.2
2022-08-17T03:26:29.787Z,18.1
2022-08-17T03:27:30.455Z,17.9
2022-08-17T03:28:31.059Z,17.8
2022-08-17T03:29:31.650Z,17.8
2022-08-17T03:30:32.246Z,17.8
2022-08-17T03:31:32.845Z,17.7
2022-08-17T03:32:34.435Z,17.6
2022-08-17T03:33:35.031Z,17.7
2022-08-17T03:34:35.631Z,17.5
2022-08-17T03:35:36.226Z,17.6
2022-08-17T03:36:36.825Z,17.7
2022-08-17T03:37:37.422Z,17.7
2022-08-17T03:38:39.458Z,17.6
2022-08-17T03:39:39.646Z,17.6
2022-08-17T03:40:56.853Z,17.5
2022-08-17T03:41:41.793Z,17.6
2022-08-17T03:42:42.394Z,17.6
2022-08-17T03:43:42.990Z,17.5
2022-08-17T03:44:43.588Z,17.7
2022-08-17T03:45:44.184Z,17.6
2022-08-17T03:46:44.784Z,17.7
2022-08-17T03:47:45.379Z,17.7
2022-08-17T03:48:45.997Z,17.7
2022-08-17T03:49:46.593Z,17.7
2022-08-17T03:50:47.192Z,17.7
2022-08-17T03:51:47.787Z,17.6
2022-08-17T03:52:56.184Z,17.7
2022-08-17T03:53:49.978Z,17.7
2022-08-17T03:54:50.575Z,17.7
2022-08-17T03:55:51.171Z,17.7
2022-08-17T03:56:51.770Z,17.8
2022-08-17T03:57:52.368Z,17.8
2022-08-17T03:58:53.476Z,17.7
2022-08-17T03:59:54.075Z,17.7
2022-08-17T04:00:54.671Z,17.8
2022-08-17T04:01:55.349Z,17.9
2022-08-17T04:02:55.924Z,17.9
2022-08-17T04:03:56.522Z,18.0
2022-08-17T04:04:57.120Z,18.0
2022-08-17T04:05:57.719Z,18.0
2022-08-17T04:06:58.319Z,17.9
2022-08-17T04:07:58.918Z,18.1
2022-08-17T04:08:59.518Z,18.1
2022-08-17T04:10:00.175Z,18.0
2022-08-17T04:11:00.729Z,18.0
2022-08-17T04:12:04.596Z,17.9
2022-08-17T04:13:01.941Z,17.9
2022-08-17T04:14:02.540Z,17.8
2022-08-17T04:15:03.142Z,17.9
2022-08-17T04:16:03.747Z,17.9
2022-08-17T04:17:04.973Z,18.0
2022-08-17T04:18:07.359Z,18.0
2022-08-17T04:19:07.170Z,18.0
2022-08-17T04:20:07.762Z,18.0
2022-08-17T04:21:08.362Z,18.0
2022-08-17T04:22:08.963Z,18.0
2022-08-17T04:23:09.569Z,18.0
2022-08-17T04:24:10.162Z,18.0
2022-08-17T04:25:10.765Z,18.0
2022-08-17T04:26:11.364Z,17.9
2022-08-17T04:27:12.959Z,17.9
2022-08-17T04:28:16.176Z,17.7
2022-08-17T04:29:14.175Z,17.7
2022-08-17T04:30:14.774Z,17.7
2022-08-17T04:31:15.376Z,17.6
2022-08-17T04:32:15.975Z,17.6
2022-08-17T04:33:16.840Z,17.6
2022-08-17T04:34:19.633Z,17.6
2022-08-17T04:35:18.176Z,17.6
2022-08-17T04:36:18.798Z,17.8
2022-08-17T04:37:19.403Z,17.8
2022-08-17T04:38:20.009Z,18.0
2022-08-17T04:39:20.608Z,18.1
2022-08-17T04:40:21.209Z,18.0
2022-08-17T04:41:21.811Z,18.1
2022-08-17T04:42:22.411Z,18.2
2022-08-17T04:43:23.013Z,18.3
2022-08-17T04:44:28.375Z,18.3
2022-08-17T04:45:25.208Z,18.5
2022-08-17T04:46:26.802Z,18.5
2022-08-17T04:47:27.402Z,18.5
2022-08-17T04:48:35.801Z,18.5
2022-08-17T04:49:29.598Z,18.6
2022-08-17T04:50:30.199Z,18.6
2022-08-17T04:51:30.804Z,18.6
2022-08-17T04:52:43.448Z,18.7
2022-08-17T04:53:33.001Z,18.6
2022-08-17T04:54:33.600Z,18.6
2022-08-17T04:55:34.202Z,18.6
2022-08-17T04:56:34.805Z,18.5
2022-08-17T04:57:38.469Z,18.5
2022-08-17T04:58:37.001Z,18.4
2022-08-17T04:59:37.603Z,18.5
2022-08-17T05:00:38.205Z,18.4
2022-08-17T05:01:38.853Z,18.4
2022-08-17T05:02:39.407Z,18.5
2022-08-17T05:03:41.002Z,18.6
2022-08-17T05:04:41.601Z,18.7
2022-08-17T05:05:42.206Z,18.7
2022-08-17T05:06:42.804Z,18.8
2022-08-17T05:07:43.408Z,18.8
2022-08-17T05:08:44.008Z,19.0
2022-08-17T05:09:44.611Z,19.1
2022-08-17T05:10:45.807Z,19.2
2022-08-17T05:11:46.455Z,19.2
2022-08-17T05:12:47.118Z,19.3
2022-08-17T05:13:47.683Z,19.3
2022-08-17T05:14:48.286Z,19.3
2022-08-17T05:15:48.909Z,19.4
2022-08-17T05:16:49.512Z,19.4
2022-08-17T05:17:50.114Z,19.4
2022-08-17T05:18:50.720Z,19.4
2022-08-17T05:19:52.119Z,19.3
2022-08-17T05:20:52.734Z,19.2
2022-08-17T05:21:53.329Z,19.2
2022-08-17T05:22:53.930Z,19.1
2022-08-17T05:23:56.315Z,18.9
2022-08-17T05:24:56.136Z,19.0
2022-08-17T05:25:56.747Z,18.9
2022-08-17T05:27:02.560Z,19.0
2022-08-17T05:27:58.957Z,19.1
2022-08-17T05:29:02.417Z,19.2
2022-08-17T05:30:00.203Z,19.3
2022-08-17T05:31:00.813Z,19.5
2022-08-17T05:32:01.438Z,19.6
2022-08-17T05:33:03.029Z,19.8
2022-08-17T05:34:03.649Z,20.0
2022-08-17T05:35:04.289Z,20.1
2022-08-17T05:36:04.892Z,20.1
2022-08-17T05:37:05.492Z,20.3
2022-08-17T05:38:06.096Z,20.2
2022-08-17T05:39:06.694Z,20.3
2022-08-17T05:40:07.368Z,20.4
2022-08-17T05:41:07.953Z,20.3
2022-08-17T05:42:08.592Z,20.4
2022-08-17T05:43:09.178Z,20.5
2022-08-17T05:44:09.797Z,20.6
2022-08-17T05:45:10.402Z,20.6
2022-08-17T05:46:11.004Z,20.6
2022-08-17T05:47:11.607Z,20.7
2022-08-17T05:48:12.209Z,20.7
2022-08-17T05:49:12.813Z,20.6
2022-08-17T05:50:13.444Z,20.7
2022-08-17T05:51:14.051Z,20.5
2022-08-17T05:52:14.660Z,20.5
2022-08-17T05:53:15.270Z,20.3
2022-08-17T05:54:15.873Z,20.1
2022-08-17T05:55:16.477Z,20.0
2022-08-17T05:56:27.947Z,19.8
2022-08-17T05:57:19.739Z,19.7
2022-08-17T05:58:20.274Z,19.8
2022-08-17T05:59:20.875Z,19.9
2022-08-17T06:00:21.477Z,20.2
2022-08-17T06:01:23.105Z,20.3
2022-08-17T06:02:23.676Z,20.4
2022-08-17T06:03:24.277Z,20.4
2022-08-17T06:04:24.879Z,20.3
2022-08-17T06:05:25.482Z,20.3
2022-08-17T06:06:31.259Z,20.1
2022-08-17T06:07:27.679Z,20.1
2022-08-17T06:08:28.280Z,20.2
2022-08-17T06:09:33.412Z,20.2
2022-08-17T06:10:30.480Z,20.3
2022-08-17T06:11:31.082Z,20.6
2022-08-17T06:12:31.705Z,20.8
2022-08-17T06:13:33.301Z,21.0
2022-08-17T06:14:33.905Z,21.2
2022-08-17T06:15:34.511Z,21.1
2022-08-17T06:16:35.111Z,21.4
2022-08-17T06:17:35.715Z,21.4
2022-08-17T06:18:36.317Z,22.0
2022-08-17T06:19:36.922Z,22.3
2022-08-17T06:20:37.523Z,22.8
2022-08-17T06:21:38.125Z,23.4
2022-08-17T06:22:38.749Z,23.7
2022-08-17T06:23:39.354Z,24.1
2022-08-17T06:24:39.967Z,24.6
2022-08-17T06:25:40.578Z,24.7
2022-08-17T06:26:43.402Z,24.8
2022-08-17T06:27:42.779Z,25.2
2022-08-17T06:28:43.402Z,25.5
2022-08-17T06:29:44.001Z,25.6
2022-08-17T06:30:59.447Z,25.5
2022-08-17T06:31:46.199Z,25.8
2022-08-17T06:32:46.848Z,25.7
2022-08-17T06:33:47.433Z,25.8
2022-08-17T06:34:48.036Z,26.2
2022-08-17T06:35:48.658Z,26.8
2022-08-17T06:36:50.253Z,27.6
2022-08-17T06:37:50.857Z,27.7
2022-08-17T06:38:51.481Z,27.3
2022-08-17T06:39:52.129Z,27.0
2022-08-17T06:40:52.702Z,26.8
2022-08-17T06:41:53.304Z,26.3
2022-08-17T06:43:05.710Z,25.9
2022-08-17T06:43:55.522Z,26.1
2022-08-17T06:44:56.146Z,26.3
2022-08-17T06:45:56.728Z,25.7
2022-08-17T06:46:57.331Z,25.6
2022-08-17T06:47:57.933Z,25.0
2022-08-17T06:48:58.537Z,24.8
2022-08-17T06:49:59.158Z,24.8
2022-08-17T06:50:59.758Z,24.9
2022-08-17T06:52:00.502Z,24.9
2022-08-17T06:53:01.223Z,24.9
2022-08-17T06:54:01.926Z,25.0
2022-08-17T06:55:02.529Z,24.6
2022-08-17T06:56:03.130Z,24.3
2022-08-17T06:57:03.734Z,23.9
2022-08-17T06:58:05.781Z,23.9
2022-08-17T06:59:04.970Z,23.9
2022-08-17T07:00:05.574Z,24.3
2022-08-17T07:01:06.241Z,24.4
2022-08-17T07:02:07.003Z,24.5
2022-08-17T07:03:07.899Z,24.6
2022-08-17T07:04:12.206Z,24.7
2022-08-17T07:05:09.394Z,24.8
2022-08-17T07:06:10.000Z,24.8
2022-08-17T07:07:10.602Z,24.4
2022-08-17T07:08:11.218Z,24.2
2022-08-17T07:09:11.837Z,24.2
2022-08-17T07:10:12.434Z,24.0
2022-08-17T07:11:13.044Z,23.9
2022-08-17T07:12:13.638Z,23.9
2022-08-17T07:13:14.240Z,24.2
2022-08-17T07:14:17.318Z,24.5
2022-08-17T07:15:16.438Z,24.6
2022-08-17T07:16:17.043Z,24.5
2022-08-17T07:17:17.645Z,24.5
2022-08-17T07:18:18.251Z,24.8
2022-08-17T07:19:18.873Z,25.0
2022-08-17T07:20:19.479Z,25.2
2022-08-17T07:21:22.922Z,25.5
2022-08-17T07:22:20.702Z,26.0
2022-08-17T07:23:21.305Z,26.1
2022-08-17T07:24:30.253Z,25.5
2022-08-17T07:25:23.504Z,25.7
2022-08-17T07:26:24.111Z,26.1
2022-08-17T07:27:24.715Z,26.1
2022-08-17T07:28:25.318Z,26.1
2022-08-17T07:29:25.920Z,26.1
2022-08-17T07:30:26.524Z,26.4
2022-08-17T07:31:27.127Z,26.5
2022-08-17T07:32:27.733Z,26.5
2022-08-17T07:33:28.334Z,26.2
2022-08-17T07:34:29.183Z,25.9
2022-08-17T07:35:31.271Z,26.0
2022-08-17T07:36:30.479Z,26.0
2022-08-17T07:37:31.081Z,26.1
2022-08-17T07:38:31.685Z,26.4
2022-08-17T07:39:32.340Z,26.5
2022-08-17T07:40:32.937Z,26.8
2022-08-17T07:41:57.585Z,27.1
2022-08-17T07:42:35.095Z,27.2
2022-08-17T07:43:35.699Z,26.5
2022-08-17T07:44:36.304Z,26.3
2022-08-17T07:45:36.906Z,26.2
2022-08-17T07:46:37.512Z,26.1
2022-08-17T07:47:38.116Z,26.1
2022-08-17T07:48:38.740Z,26.2
2022-08-17T07:49:39.341Z,26.1
2022-08-17T07:50:39.960Z,25.9
2022-08-17T07:51:40.567Z,25.9
2022-08-17T07:52:51.714Z,26.0
2022-08-17T07:53:42.785Z,26.0
2022-08-17T07:54:43.390Z,26.2
2022-08-17T07:55:43.994Z,26.0
2022-08-17T07:56:44.597Z,25.9
2022-08-17T07:57:45.201Z,25.8
2022-08-17T07:58:45.805Z,25.7
2022-08-17T07:59:46.410Z,25.6
2022-08-17T08:00:47.029Z,25.5
2022-08-17T08:01:47.663Z,25.5
2022-08-17T08:02:49.229Z,25.7
2022-08-17T08:03:52.591Z,25.8
2022-08-17T08:05:08.862Z,26.0
2022-08-17T08:05:53.026Z,26.2
2022-08-17T08:06:53.629Z,26.4
2022-08-17T08:07:54.253Z,26.2
2022-08-17T08:08:54.864Z,26.2
2022-08-17T08:09:55.470Z,26.4
2022-08-17T08:10:56.074Z,26.7
2022-08-17T08:11:56.677Z,27.0
2022-08-17T08:12:57.282Z,27.0
2022-08-17T08:13:58.865Z,27.2
2022-08-17T08:14:59.479Z,26.8
2022-08-17T08:16:00.074Z,27.1
2022-08-17T08:17:00.679Z,26.8
2022-08-17T08:18:01.282Z,27.1
2022-08-17T08:19:01.893Z,27.1
2022-08-17T08:20:35.048Z,27.3
2022-08-17T08:21:04.347Z,27.2
2022-08-17T08:22:04.950Z,27.2
2022-08-17T08:23:05.554Z,27.0
2022-08-17T08:24:06.155Z,26.9
2022-08-17T08:25:06.757Z,26.8
2022-08-17T08:26:07.361Z,26.9
2022-08-17T08:27:08.619Z,27.1
2022-08-17T08:28:09.243Z,26.8
2022-08-17T08:29:09.847Z,26.9
2022-08-17T08:30:10.452Z,26.8
2022-08-17T08:31:11.056Z,26.6
2022-08-17T08:32:11.661Z,26.5
2022-08-17T08:33:12.265Z,26.7
2022-08-17T08:34:58.623Z,26.5
2022-08-17T08:35:14.468Z,26.6
2022-08-17T08:37:12.551Z,26.4
2022-08-17T08:37:22.826Z,26.3
2022-08-17T08:38:18.287Z,26.4
2022-08-17T08:39:18.892Z,26.4
2022-08-17T08:40:19.580Z,26.3
2022-08-17T08:41:20.210Z,26.3
2022-08-17T08:42:20.924Z,26.4
2022-08-17T08:43:21.446Z,26.3
2022-08-17T08:44:22.052Z,26.5
2022-08-17T08:45:23.647Z,26.5
2022-08-17T08:46:24.256Z,26.6
2022-08-17T08:47:24.856Z,26.6
2022-08-17T08:48:52.840Z,26.7
2022-08-17T08:49:58.967Z,26.8
2022-08-17T08:50:37.745Z,26.7
2022-08-17T08:51:30.277Z,26.8
2022-08-17T08:52:30.899Z,26.9
2022-08-17T08:53:31.521Z,26.7
2022-08-17T08:54:32.127Z,26.8
2022-08-17T08:55:32.731Z,26.6
2022-08-17T08:56:33.335Z,26.6
2022-08-17T08:57:34.722Z,26.7
2022-08-17T08:58:41.759Z,26.9
2022-08-17T08:59:41.912Z,26.8
2022-08-17T09:00:38.554Z,26.9
2022-08-17T09:01:39.176Z,27.1
2022-08-17T09:02:39.761Z,27.5
2022-08-17T09:03:52.444Z,27.6
2022-08-17T09:05:10.548Z,27.4
2022-08-17T09:05:43.556Z,27.5
2022-08-17T09:06:44.161Z,27.7
2022-08-17T09:07:44.778Z,27.9
2022-08-17T09:08:45.371Z,27.7
2022-08-17T09:09:46.140Z,27.9
2022-08-17T09:10:46.689Z,28.0
2022-08-17T09:12:02.521Z,28.1
2022-08-17T09:12:48.890Z,28.1
2022-08-17T09:13:54.372Z,28.1
2022-08-17T09:14:51.090Z,28.1
2022-08-17T09:15:51.696Z,27.9
2022-08-17T09:16:52.297Z,28.1
2022-08-17T09:18:08.660Z,28.4
2022-08-17T09:18:59.791Z,28.8
2022-08-17T09:19:55.117Z,28.7
2022-08-17T09:20:55.724Z,28.8
2022-08-17T09:21:56.325Z,29.2
2022-08-17T09:22:56.927Z,29.5
2022-08-17T09:23:57.532Z,29.5
2022-08-17T09:24:58.138Z,29.7
2022-08-17T09:25:58.763Z,29.9
2022-08-17T09:26:59.377Z,29.7
2022-08-17T09:28:00.772Z,29.6
2022-08-17T09:29:01.474Z,29.7
2022-08-17T09:30:02.058Z,29.5
2022-08-17T09:31:02.662Z,29.4
2022-08-17T09:32:03.267Z,29.5
2022-08-17T09:33:03.870Z,29.3
2022-08-17T09:34:04.475Z,29.4
2022-08-17T09:35:05.079Z,29.4
2022-08-17T09:36:05.704Z,29.0
2022-08-17T09:37:06.308Z,28.9
2022-08-17T09:38:06.912Z,28.9
2022-08-17T09:39:07.537Z,28.9
2022-08-17T09:40:08.564Z,29.2
2022-08-17T09:41:09.181Z,29.1
2022-08-17T09:42:09.801Z,29.1
2022-08-17T09:43:10.404Z,29.1
2022-08-17T09:44:13.988Z,29.3
2022-08-17T09:45:12.606Z,29.3
2022-08-17T09:46:13.209Z,29.2
2022-08-17T09:47:13.810Z,28.8
2022-08-17T09:48:14.435Z,28.9
2022-08-17T09:49:16.030Z,29.0
2022-08-17T09:50:16.689Z,29.2
2022-08-17T09:51:17.236Z,29.3
2022-08-17T09:52:17.979Z,29.5
2022-08-17T09:53:18.662Z,29.6
2022-08-17T09:54:38.048Z,29.4
2022-08-17T09:55:20.861Z,29.3
2022-08-17T09:56:21.466Z,29.3
2022-08-17T09:57:31.113Z,29.5
2022-08-17T09:58:23.667Z,29.5
2022-08-17T09:59:25.264Z,29.6
2022-08-17T10:00:26.061Z,29.7
2022-08-17T10:01:26.745Z,29.7
2022-08-17T10:02:27.282Z,29.7
2022-08-17T10:03:27.887Z,29.9
2022-08-17T10:04:29.728Z,29.8
2022-08-17T10:05:30.088Z,29.8
2022-08-17T10:06:30.692Z,29.8
2022-08-17T10:07:31.295Z,30.0
2022-08-17T10:08:31.898Z,30.4
2022-08-17T10:09:32.504Z,30.6
2022-08-17T10:10:33.146Z,30.4
2022-08-17T10:11:34.099Z,30.6
2022-08-17T10:12:35.643Z,30.9
2022-08-17T10:13:37.237Z,31.2
2022-08-17T10:14:43.958Z,31.2
2022-08-17T10:15:41.711Z,31.6
2022-08-17T10:16:41.034Z,31.3
2022-08-17T10:17:41.637Z,30.9
2022-08-17T10:18:42.244Z,31.2
2022-08-17T10:19:43.925Z,31.1
2022-08-17T10:20:44.444Z,30.8
2022-08-17T10:21:45.049Z,31.0
2022-08-17T10:22:47.831Z,31.2
2022-08-17T10:23:47.250Z,31.4
2022-08-17T10:25:21.492Z,31.6
2022-08-17T10:25:55.071Z,31.8
2022-08-17T10:26:56.507Z,31.6
2022-08-17T10:27:51.739Z,31.7
2022-08-17T10:28:52.416Z,31.7
2022-08-17T10:29:53.020Z,31.6
2022-08-17T10:31:05.303Z,31.6
2022-08-17T10:31:55.223Z,31.5
2022-08-17T10:32:55.828Z,31.5
2022-08-17T10:33:56.453Z,31.7
2022-08-17T10:34:57.057Z,31.6
2022-08-17T10:35:57.663Z,31.5
2022-08-17T10:36:58.288Z,31.6
2022-08-17T10:37:58.895Z,31.7
2022-08-17T10:38:59.502Z,31.8
2022-08-17T10:40:00.222Z,32.0
2022-08-17T10:41:00.829Z,32.1
2022-08-17T10:42:01.444Z,32.2
2022-08-17T10:43:02.049Z,32.2
2022-08-17T10:44:38.659Z,31.9
2022-08-17T10:45:05.244Z,31.7
2022-08-17T10:46:10.469Z,31.3
2022-08-17T10:47:07.444Z,31.3
2022-08-17T10:48:08.459Z,31.1
2022-08-17T10:49:09.195Z,31.2
2022-08-17T10:50:09.802Z,31.0
2022-08-17T10:51:10.406Z,30.8
2022-08-17T10:52:11.025Z,30.8
2022-08-17T10:53:11.614Z,30.9
2022-08-17T10:54:12.286Z,31.1
2022-08-17T10:55:12.888Z,31.4
2022-08-17T10:56:13.521Z,31.6
2022-08-17T10:57:14.113Z,31.6
2022-08-17T10:58:14.728Z,31.7
2022-08-17T10:59:15.326Z,31.9
2022-08-17T11:00:15.953Z,32.1
2022-08-17T11:01:16.557Z,31.8
2022-08-17T11:02:17.134Z,31.9
2022-08-17T11:03:17.749Z,31.5
2022-08-17T11:04:18.342Z,31.3
2022-08-17T11:05:18.968Z,31.1
2022-08-17T11:06:19.572Z,30.8
2022-08-17T11:07:20.178Z,31.1
2022-08-17T11:08:20.806Z,31.2
2022-08-17T11:09:22.401Z,31.3
2022-08-17T11:10:23.007Z,31.5
2022-08-17T11:11:23.630Z,31.5
2022-08-17T11:12:24.237Z,31.5
2022-08-17T11:13:24.839Z,31.5
2022-08-17T11:14:25.443Z,31.6
2022-08-17T11:15:26.044Z,31.5
2022-08-17T11:16:27.056Z,31.7
2022-08-17T11:17:27.663Z,31.7
2022-08-17T11:18:28.268Z,31.9
2022-08-17T11:19:28.869Z,32.0
2022-08-17T11:20:29.493Z,31.8
2022-08-17T11:21:30.116Z,31.7
2022-08-17T11:22:33.482Z,31.6
2022-08-17T11:23:32.339Z,31.6
2022-08-17T11:24:32.945Z,31.5
2022-08-17T11:25:33.571Z,31.2
2022-08-17T11:26:34.175Z,31.2
2022-08-17T11:27:34.781Z,31.2
2022-08-17T11:28:35.401Z,31.1
2022-08-17T11:29:36.023Z,31.2
2022-08-17T11:30:37.524Z,30.9
2022-08-17T11:31:39.856Z,30.9
2022-08-17T11:32:47.142Z,30.8
2022-08-17T11:33:41.323Z,30.9
2022-08-17T11:34:42.921Z,31.2
2022-08-17T11:35:43.525Z,31.4
2022-08-17T11:36:44.133Z,31.6
2022-08-17T11:37:45.730Z,31.5
2022-08-17T11:38:46.333Z,31.4
2022-08-17T11:39:46.966Z,31.7
2022-08-17T11:40:47.562Z,31.8
2022-08-17T11:41:48.165Z,31.9
2022-08-17T11:42:48.956Z,31.9
2022-08-17T11:43:49.642Z,31.8
2022-08-17T11:44:50.250Z,31.5
2022-08-17T11:45:50.870Z,31.4
2022-08-17T11:46:52.000Z,31.3
2022-08-17T11:48:16.086Z,31.4
2022-08-17T11:48:54.203Z,31.5
2022-08-17T11:49:54.807Z,31.5
2022-08-17T11:50:55.411Z,31.3
2022-08-17T11:51:56.014Z,31.4
2022-08-17T11:52:56.619Z,31.6
2022-08-17T11:54:21.498Z,31.5
2022-08-17T11:55:12.414Z,31.2
2022-08-17T11:56:00.414Z,31.0
2022-08-17T11:57:01.021Z,31.0
2022-08-17T11:58:01.725Z,30.9
2022-08-17T11:59:02.357Z,30.7
2022-08-17T12:00:02.966Z,30.7
2022-08-17T12:01:03.583Z,30.8
2022-08-17T12:02:05.176Z,30.8
2022-08-17T12:03:05.858Z,30.7
2022-08-17T12:04:06.476Z,30.6
2022-08-17T12:05:11.878Z,30.6
2022-08-17T12:06:08.641Z,30.6
2022-08-17T12:07:09.248Z,30.6
2022-08-17T12:08:09.870Z,30.5
2022-08-17T12:09:10.492Z,30.5
2022-08-17T12:10:11.100Z,30.5
2022-08-17T12:11:11.704Z,30.5
2022-08-17T12:12:14.260Z,30.5
2022-08-17T12:13:13.902Z,30.4
2022-08-17T12:14:18.478Z,30.4
2022-08-17T12:15:16.104Z,30.3
2022-08-17T12:16:16.706Z,30.3
2022-08-17T12:17:26.483Z,30.3
2022-08-17T12:18:18.919Z,30.4
2022-08-17T12:19:19.525Z,30.4
2022-08-17T12:20:20.127Z,30.3
2022-08-17T12:21:20.735Z,30.3
2022-08-17T12:22:21.358Z,30.2
2022-08-17T12:23:21.964Z,30.1
2022-08-17T12:24:22.567Z,30.0
2022-08-17T12:25:23.171Z,30.2
2022-08-17T12:26:23.777Z,30.0
2022-08-17T12:28:04.530Z,30.0
2022-08-17T12:28:25.979Z,29.9
2022-08-17T12:29:35.738Z,30.1
2022-08-17T12:30:28.181Z,30.1
2022-08-17T12:31:28.805Z,30.1
2022-08-17T12:32:29.431Z,30.3
2022-08-17T12:33:30.037Z,30.4
2022-08-17T12:34:30.637Z,30.4
2022-08-17T12:35:31.241Z,30.6
2022-08-17T12:36:31.850Z,30.6
2022-08-17T12:37:32.487Z,30.8
2022-08-17T12:38:33.696Z,30.8
2022-08-17T12:39:34.341Z,30.8
2022-08-17T12:40:34.900Z,30.8
2022-08-17T12:41:35.507Z,31.0
2022-08-17T12:42:36.130Z,31.0
2022-08-17T12:43:36.756Z,31.0
2022-08-17T12:44:46.149Z,31.0
2022-08-17T12:45:38.956Z,30.9
2022-08-17T12:46:39.560Z,30.8
2022-08-17T12:47:40.164Z,30.7
2022-08-17T12:48:40.774Z,30.8
2022-08-17T12:49:41.389Z,30.7
2022-08-17T12:50:41.998Z,30.7
2022-08-17T12:51:42.603Z,30.6
2022-08-17T12:52:43.198Z,30.7
2022-08-17T12:53:44.795Z,30.7
2022-08-17T12:54:45.399Z,30.8
2022-08-17T12:55:46.002Z,30.7
2022-08-17T12:56:47.665Z,30.7
2022-08-17T12:57:47.357Z,30.8
2022-08-17T12:58:47.938Z,30.6
2022-08-17T12:59:48.540Z,30.5
2022-08-17T13:00:49.270Z,30.4
2022-08-17T13:01:49.956Z,30.3
2022-08-17T13:02:50.530Z,30.1
2022-08-17T13:03:51.135Z,30.3
2022-08-17T13:04:51.738Z,30.3
2022-08-17T13:05:52.343Z,30.3
2022-08-17T13:06:59.542Z,30.2
2022-08-17T13:07:54.551Z,30.3
2022-08-17T13:08:55.145Z,30.3
2022-08-17T13:09:55.748Z,30.3
2022-08-17T13:10:56.373Z,30.3
2022-08-17T13:11:56.973Z,30.1
2022-08-17T13:12:57.596Z,30.0
2022-08-17T13:13:58.201Z,30.0
2022-08-17T13:14:58.802Z,30.2
2022-08-17T13:15:59.405Z,30.1
2022-08-17T13:17:00.005Z,30.0
2022-08-17T13:18:00.608Z,30.0
2022-08-17T13:19:01.211Z,29.9
2022-08-17T13:20:01.814Z,29.9
2022-08-17T13:21:02.416Z,29.8
2022-08-17T13:22:04.144Z,29.8
2022-08-17T13:23:07.573Z,29.8
2022-08-17T13:24:06.232Z,29.9
2022-08-17T13:25:06.858Z,29.8
2022-08-17T13:26:07.463Z,29.9
2022-08-17T13:27:08.589Z,29.7
2022-08-17T13:28:09.287Z,29.7
2022-08-17T13:29:09.888Z,29.7